Aeroporto :
LOGIN :

Iscrizione | Disclaimer

   EN    FR    IT 

 










Sommario :    VFR   VFR Marginale   IFR   IFR Intensivo   IFR Molto Intensivo
Visibilità : 
Base nubi : 
>= 8 km
>= 3000ft
5 / 8 km
1000 / 3000 ft
1500m / 5 km
500 / 1000 ft
800 / 1500m
200 / 500 ft
< 800m
< 200 ft
Simboli :   Temporali  Nebbia  Neve Forte  Precipitazioni Forti  Vento > 20 kt
SIGMETs :   Varie  Temporali  Ghiacco  Turbolenza  Onda orograficha  Ceneri Vulcaniche






- Altitudine del aeroporto : 464 ft
- Codice IATA : EVX


LFOE - Evreux

ULTIMO METAR :
  • 251030Z AUTO 28005KT 230V310 9999 OVC016 18/14 Q1019 BECMG 4000 -RA

METARs OBSOLETI :
  • 251000Z AUTO 25005KT 220V290 9999 BKN009 BKN014 OVC019 17/14 Q1019 BECMG 4000 -RA OVC020
  • 250930Z AUTO 27005KT 230V320 9999 OVC007 16/15 Q1020 BECMG 4000 -RA OVC020
  • 250900Z AUTO 24004KT 200V280 9999 OVC007 15/14 Q1020 NOSIG
  • 250830Z AUTO 21005KT 9999 OVC007 15/14 Q1020 NOSIG
  • 250800Z AUTO 21006KT 7000 BKN010 OVC014 14/13 Q1020 TEMPO 4000 -RADZ

TAF TAF LFOE
Valido dal 25 a 09 ore il 26 a 09 ore UTC


250800Z 2509/2609 22007KT 8000 OVC012
TEMPO 2509/2511 -RADZ OVC008
BECMG 2511/2512 4000 -RA OVC020
TEMPO 2511/2517 30010KT
TEMPO 2515/2523 4000 -SHRA BKN020TCU
BECMG 2602/2604 OVC004
BECMG 2606/2608 8000 NSW



MetMap, La meteo Aeronautica in un colpo d'occhio ! - Copyright ORBIFLY Dicembre 2007 - Disclaimer

ORBIFLY MET'MAP TEAM :

Programmazione e sviluppo : Alexandra Zaïnal
Concezione : Baudouin d'Aumeries
Aiuto per la programmazione : Marc-Olivier Méhu
Supporto tecnico e logistico : Manuel Goepfert
Aiuto per la traduzione : Arnaldo La Scala

Contatto : metmap@orbifly.com




FONTI E CREDITI :

   NOAA